KGSH/GSH METAR and TAF weather

Enter ICAO airport designator
Station Type Date Time Source
KGSH METAR 2020/09/22 23:53 UTC NOAA

KGSH 222353Z AUTO 00000KT 10SM CLR 19/12 A3010 RMK AO2 SLP193 T01890117 10256 20189 56006 $


Station Type Date Time Source
KGSH Decoded METAR 2020/09/22 23:53 UTC NOAA

GOSHEN MUNICIPAL AIRPORT, IN, United States (KGSH) 41-32N 85-47W 252M
Sep 22, 2020 - 07:53 PM EDT / 2020.09.22 2353 UTC
Wind: Calm:0
Visibility: 10 mile(s):0
Sky conditions: clear
Temperature: 66.0 F (18.9 C)
Dew Point: 53.1 F (11.7 C)
Relative Humidity: 62%
Pressure (altimeter): 30.1 in. Hg (1019 hPa)
Pressure tendency: 0.02 inches (0.6 hPa) lower than three hours ago
ob: KGSH 222353Z AUTO 00000KT 10SM CLR 19/12 A3010 RMK AO2 SLP193 T01890117 10256 20189 56006
cycle: 0

Station Type Date Time Source
KGSH TAF UTC NOAA

Error!

Example: see airport list